createdAt,value
2019-05-20T00:01:26.589Z,4.47
2019-05-20T00:03:54.146Z,3.70
2019-05-20T00:06:21.817Z,7.30
2019-05-20T00:08:49.929Z,4.93
2019-05-20T00:11:17.822Z,3.70
2019-05-20T00:13:45.431Z,4.07
2019-05-20T00:16:13.257Z,3.87
2019-05-20T00:18:40.802Z,3.63
2019-05-20T00:21:08.479Z,6.40
2019-05-20T00:23:36.087Z,4.13
2019-05-20T00:26:03.773Z,4.20
2019-05-20T00:28:31.268Z,4.53
2019-05-20T00:30:58.911Z,3.93
2019-05-20T00:33:26.470Z,3.70
2019-05-20T00:35:54.067Z,4.83
2019-05-20T00:38:21.691Z,7.00
2019-05-20T00:40:49.268Z,4.67
2019-05-20T00:43:23.061Z,3.97
2019-05-20T00:45:50.549Z,4.07
2019-05-20T00:48:18.087Z,3.73
2019-05-20T00:50:45.699Z,5.53
2019-05-20T00:53:13.291Z,3.70
2019-05-20T00:55:41.062Z,3.40
2019-05-20T00:58:08.673Z,3.53
2019-05-20T01:00:36.854Z,5.20
2019-05-20T01:03:04.494Z,3.60
2019-05-20T01:05:32.202Z,4.03
2019-05-20T01:07:59.862Z,4.00
2019-05-20T01:10:27.403Z,3.30
2019-05-20T01:12:55.035Z,4.17
2019-05-20T01:15:22.643Z,4.80
2019-05-20T01:17:50.222Z,5.70
2019-05-20T01:20:17.996Z,3.87
2019-05-20T01:22:45.583Z,3.67
2019-05-20T01:25:13.316Z,3.30
2019-05-20T01:27:40.909Z,6.80
2019-05-20T01:30:09.949Z,3.50
2019-05-20T01:32:37.579Z,3.20
2019-05-20T01:35:05.311Z,4.70
2019-05-20T01:37:32.973Z,4.03
2019-05-20T01:40:00.604Z,3.10
2019-05-20T01:42:28.184Z,3.70
2019-05-20T01:44:55.755Z,3.63
2019-05-20T01:47:23.356Z,3.87
2019-05-20T01:49:50.945Z,4.80
2019-05-20T01:52:18.465Z,3.47
2019-05-20T01:54:46.126Z,6.10
2019-05-20T01:57:13.759Z,2.30
2019-05-20T01:59:41.367Z,3.17
2019-05-20T02:02:09.316Z,4.00
2019-05-20T02:04:36.859Z,3.00
2019-05-20T02:07:04.802Z,5.00
2019-05-20T02:09:32.378Z,4.90
2019-05-20T02:12:00.028Z,4.23
2019-05-20T02:14:30.017Z,2.53
2019-05-20T02:16:57.624Z,2.57
2019-05-20T02:19:25.631Z,2.97
2019-05-20T02:21:53.229Z,3.83
2019-05-20T02:24:20.788Z,2.40
2019-05-20T02:26:48.395Z,2.70
2019-05-20T02:29:16.011Z,2.03
2019-05-20T02:31:43.559Z,2.60
2019-05-20T02:34:11.127Z,4.27
2019-05-20T02:36:38.754Z,4.10
2019-05-20T02:39:06.379Z,3.17
2019-05-20T02:41:34.249Z,2.50
2019-05-20T02:44:01.920Z,2.77
2019-05-20T02:46:29.497Z,2.57
2019-05-20T02:48:57.052Z,2.73
2019-05-20T02:51:30.494Z,2.20
2019-05-20T02:53:59.319Z,2.80
2019-05-20T02:56:26.932Z,2.57
2019-05-20T02:58:54.568Z,2.73
2019-05-20T03:01:22.277Z,2.23
2019-05-20T03:04:07.971Z,2.10
2019-05-20T03:06:19.118Z,2.17
2019-05-20T03:08:46.736Z,3.63
2019-05-20T03:11:14.321Z,4.80
2019-05-20T03:13:41.960Z,3.93
2019-05-20T03:16:09.602Z,2.90
2019-05-20T03:18:37.184Z,3.07
2019-05-20T03:21:04.750Z,3.40
2019-05-20T03:23:32.369Z,3.40
2019-05-20T03:25:59.898Z,4.13
2019-05-20T03:28:27.697Z,3.20
2019-05-20T03:30:55.349Z,2.80
2019-05-20T03:33:22.880Z,2.60
2019-05-20T03:35:50.633Z,3.30
2019-05-20T03:38:18.208Z,2.70
2019-05-20T03:40:45.807Z,5.13
2019-05-20T03:43:13.311Z,3.07
2019-05-20T03:45:40.868Z,3.00
2019-05-20T03:48:08.409Z,2.60
2019-05-20T03:50:35.965Z,5.90
2019-05-20T03:53:03.584Z,3.90
2019-05-20T03:55:31.082Z,4.00
2019-05-20T03:57:58.642Z,2.63
2019-05-20T04:00:43.693Z,3.60
2019-05-20T04:03:11.425Z,2.60
2019-05-20T04:05:39.186Z,3.50
2019-05-20T04:08:06.759Z,3.27
2019-05-20T04:10:34.386Z,4.03
2019-05-20T04:13:01.921Z,3.60
2019-05-20T04:15:29.491Z,3.40
2019-05-20T04:17:57.222Z,3.33
2019-05-20T04:20:24.842Z,2.77
2019-05-20T04:22:52.364Z,2.50
2019-05-20T04:25:20.093Z,4.00
2019-05-20T04:27:47.640Z,3.87
2019-05-20T04:30:18.849Z,2.87
2019-05-20T04:32:45.216Z,3.40
2019-05-20T04:35:22.239Z,3.03
2019-05-20T04:37:42.763Z,3.77
2019-05-20T04:40:11.396Z,3.20
2019-05-20T04:42:39.030Z,2.90
2019-05-20T04:45:07.599Z,3.83
2019-05-20T04:47:35.550Z,3.10
2019-05-20T04:50:03.534Z,3.93
2019-05-20T04:52:31.020Z,2.43
2019-05-20T04:54:58.625Z,2.60
2019-05-20T04:57:26.192Z,2.60
2019-05-20T04:59:53.771Z,2.20
2019-05-20T05:02:21.343Z,3.90
2019-05-20T05:04:48.860Z,2.73
2019-05-20T05:07:16.379Z,3.20
2019-05-20T05:09:43.971Z,2.90
2019-05-20T05:12:12.654Z,2.50
2019-05-20T05:14:40.308Z,2.50
2019-05-20T05:17:07.789Z,3.30
2019-05-20T05:19:35.641Z,3.87
2019-05-20T05:22:03.387Z,3.10
2019-05-20T05:24:30.917Z,2.07
2019-05-20T05:26:58.548Z,2.90
2019-05-20T05:29:26.195Z,3.20
2019-05-20T05:31:53.857Z,2.80
2019-05-20T05:34:21.476Z,3.00
2019-05-20T05:36:49.044Z,3.50
2019-05-20T05:39:16.579Z,2.60
2019-05-20T05:41:44.773Z,4.00
2019-05-20T05:44:12.539Z,5.40
2019-05-20T05:46:40.152Z,2.90
2019-05-20T05:49:07.795Z,2.70
2019-05-20T05:51:35.396Z,3.00
2019-05-20T05:54:03.085Z,3.97
2019-05-20T05:56:30.610Z,3.70
2019-05-20T05:58:58.256Z,4.17
2019-05-20T06:01:25.823Z,3.10
2019-05-20T06:03:53.357Z,3.70
2019-05-20T06:06:20.968Z,3.10
2019-05-20T06:08:48.618Z,3.57
2019-05-20T06:11:16.182Z,4.40
2019-05-20T06:13:43.739Z,4.43
2019-05-20T06:16:11.740Z,4.13
2019-05-20T06:18:39.290Z,2.80
2019-05-20T06:21:06.911Z,3.60
2019-05-20T06:23:34.504Z,3.37
2019-05-20T06:26:02.247Z,3.33
2019-05-20T06:28:29.731Z,4.50
2019-05-20T06:30:57.465Z,5.20
2019-05-20T06:33:25.096Z,4.23
2019-05-20T06:35:52.877Z,4.90
2019-05-20T06:38:42.140Z,4.87
2019-05-20T06:41:09.705Z,5.73
2019-05-20T06:43:37.296Z,5.37
2019-05-20T06:46:04.990Z,5.33
2019-05-20T06:48:32.735Z,8.00
2019-05-20T06:51:00.445Z,3.73
2019-05-20T06:53:28.179Z,3.87
2019-05-20T06:55:55.936Z,4.53
2019-05-20T06:58:23.523Z,4.93
2019-05-20T07:00:51.218Z,4.50
2019-05-20T07:03:19.191Z,5.53
2019-05-20T07:05:47.011Z,8.23
2019-05-20T07:08:14.760Z,11.03
2019-05-20T07:10:43.382Z,6.93
2019-05-20T07:13:11.351Z,5.67
2019-05-20T07:15:39.107Z,4.80
2019-05-20T07:18:10.362Z,5.57
2019-05-20T07:20:38.190Z,6.53
2019-05-20T07:23:05.773Z,8.40
2019-05-20T07:25:33.589Z,16.50
2019-05-20T07:28:01.318Z,14.93
2019-05-20T07:30:29.181Z,14.07
2019-05-20T07:34:06.728Z,15.00
2019-05-20T07:37:50.776Z,16.97
2019-05-20T07:40:16.146Z,12.17
2019-05-20T07:42:59.879Z,15.50
2019-05-20T07:45:54.309Z,15.73
2019-05-20T07:48:52.395Z,13.10
2019-05-20T07:52:02.156Z,14.97
2019-05-20T08:02:13.370Z,15.40
2019-05-20T08:05:15.839Z,14.33
2019-05-20T08:07:52.501Z,21.37
2019-05-20T08:18:01.386Z,15.97
2019-05-20T08:30:49.946Z,13.57
2019-05-20T08:34:22.375Z,13.93
2019-05-20T08:49:34.040Z,14.27
2019-05-20T08:52:10.710Z,12.90
2019-05-20T08:55:34.130Z,14.63
2019-05-20T08:58:07.114Z,12.00
2019-05-20T09:01:09.433Z,11.23
2019-05-20T09:03:53.387Z,13.60
2019-05-20T09:06:25.555Z,10.97
2019-05-20T09:08:58.501Z,12.20
2019-05-20T09:11:27.268Z,12.27
2019-05-20T09:14:01.161Z,11.53
2019-05-20T09:20:58.082Z,12.90
2019-05-20T09:26:49.086Z,15.30
2019-05-20T09:30:03.785Z,14.00
2019-05-20T09:32:43.398Z,13.40
2019-05-20T09:35:11.384Z,14.87
2019-05-20T09:37:44.809Z,13.13
2019-05-20T09:40:31.005Z,14.90
2019-05-20T09:42:59.688Z,15.10
2019-05-20T09:45:30.653Z,13.97
2019-05-20T09:48:08.560Z,17.67
2019-05-20T09:50:39.628Z,13.33
2019-05-20T09:53:24.294Z,17.57
2019-05-20T10:03:35.157Z,17.60
2019-05-20T10:07:10.276Z,18.20
2019-05-20T10:10:31.159Z,20.63
2019-05-20T10:13:03.008Z,17.17
2019-05-20T10:15:45.236Z,23.90
2019-05-20T10:18:36.767Z,19.10
2019-05-20T10:21:00.378Z,21.03
2019-05-20T10:23:35.132Z,20.50
2019-05-20T10:26:19.652Z,17.90
2019-05-20T10:28:47.714Z,17.57
2019-05-20T10:31:15.861Z,17.70
2019-05-20T10:33:45.388Z,18.97
2019-05-20T10:36:13.218Z,17.63
2019-05-20T10:38:56.830Z,17.83
2019-05-20T10:41:10.843Z,21.17
2019-05-20T10:43:38.635Z,22.43
2019-05-20T10:46:06.460Z,22.17
2019-05-20T10:48:44.532Z,20.40
2019-05-20T10:51:12.180Z,22.20
2019-05-20T10:53:43.202Z,23.53
2019-05-20T10:56:11.125Z,23.50
2019-05-20T10:58:39.140Z,22.70
2019-05-20T11:01:06.801Z,21.90
2019-05-20T11:03:34.611Z,26.43
2019-05-20T11:06:02.488Z,20.10
2019-05-20T11:08:33.252Z,22.03
2019-05-20T11:11:04.111Z,22.00
2019-05-20T11:13:35.470Z,26.83
2019-05-20T11:16:03.350Z,30.57
2019-05-20T11:18:31.294Z,24.30
2019-05-20T11:20:59.021Z,28.13
2019-05-20T11:23:26.698Z,21.87
2019-05-20T11:25:54.328Z,24.87
2019-05-20T11:28:23.051Z,21.83
2019-05-20T11:30:50.723Z,23.07
2019-05-20T11:33:18.362Z,24.50
2019-05-20T11:35:46.249Z,24.83
2019-05-20T11:38:13.855Z,25.90
2019-05-20T11:52:35.657Z,26.20
2019-05-20T11:59:44.875Z,29.80
2019-05-20T12:16:57.913Z,40.37
2019-05-20T12:20:06.919Z,33.57
2019-05-20T12:22:41.359Z,34.03
2019-05-20T12:25:16.388Z,34.23
2019-05-20T12:34:54.448Z,36.50
2019-05-20T12:53:50.332Z,29.57
2019-05-20T12:57:32.227Z,36.57
2019-05-20T13:00:30.937Z,36.93
2019-05-20T13:06:20.479Z,41.03
2019-05-20T13:08:51.002Z,38.73
2019-05-20T13:11:28.351Z,42.17
2019-05-20T13:14:01.613Z,37.30
2019-05-20T13:16:36.634Z,36.70
2019-05-20T13:19:04.916Z,45.30
2019-05-20T13:21:33.901Z,35.20
2019-05-20T13:24:11.485Z,39.40
2019-05-20T13:26:44.600Z,36.50
2019-05-20T13:29:37.761Z,33.70
2019-05-20T13:32:11.535Z,33.57
2019-05-20T13:35:16.118Z,32.07
2019-05-20T13:38:03.476Z,30.30
2019-05-20T13:57:46.620Z,43.47
2019-05-20T14:00:28.877Z,37.30
2019-05-20T14:03:37.959Z,45.07
2019-05-20T14:06:00.013Z,37.00
2019-05-20T14:09:02.312Z,37.27
2019-05-20T14:11:34.732Z,29.83
2019-05-20T14:14:59.978Z,37.47
2019-05-20T14:17:40.816Z,38.47
2019-05-20T14:20:23.659Z,33.40
2019-05-20T14:22:56.289Z,31.83
2019-05-20T14:28:32.549Z,35.17
2019-05-20T14:31:11.705Z,32.63
2019-05-20T14:33:40.624Z,31.63
2019-05-20T14:36:38.572Z,36.13
2019-05-20T14:39:04.741Z,27.87
2019-05-20T14:41:44.966Z,27.90
2019-05-20T14:44:33.560Z,34.00
2019-05-20T14:47:57.148Z,33.97
2019-05-20T14:55:41.458Z,34.90
2019-05-20T14:58:13.415Z,31.83
2019-05-20T15:04:58.816Z,29.87
2019-05-20T15:07:43.080Z,29.73
2019-05-20T15:10:45.923Z,32.50
2019-05-20T15:13:45.465Z,36.57
2019-05-20T15:16:39.195Z,34.13
2019-05-20T15:23:28.378Z,33.13
2019-05-20T15:26:19.482Z,31.40
2019-05-20T15:28:52.597Z,29.57
2019-05-20T15:31:24.749Z,25.93
2019-05-20T15:33:57.809Z,28.00
2019-05-20T15:36:28.788Z,29.87
2019-05-20T15:39:25.335Z,32.70
2019-05-20T15:45:25.937Z,34.90
2019-05-20T15:48:15.855Z,33.23
2019-05-20T15:51:08.477Z,37.43
2019-05-20T15:53:38.740Z,35.43
2019-05-20T15:56:16.706Z,35.90
2019-05-20T15:59:03.400Z,32.93
2019-05-20T16:01:54.457Z,41.70
2019-05-20T16:04:26.361Z,31.97
2019-05-20T16:07:14.639Z,36.80
2019-05-20T16:10:06.910Z,37.60
2019-05-20T16:12:44.820Z,39.00
2019-05-20T16:15:19.072Z,37.50
2019-05-20T16:17:58.578Z,38.40
2019-05-20T16:29:22.003Z,40.20
2019-05-20T16:32:22.899Z,37.67
2019-05-20T17:00:29.846Z,31.10
2019-05-20T17:07:29.710Z,33.57
2019-05-20T17:17:45.683Z,30.80
2019-05-20T17:20:36.566Z,29.23
2019-05-20T17:23:12.248Z,27.47
2019-05-20T17:26:16.944Z,29.17
2019-05-20T17:29:14.735Z,27.13
2019-05-20T17:32:01.248Z,26.07
2019-05-20T17:34:29.408Z,27.13
2019-05-20T17:36:59.398Z,28.23
2019-05-20T17:39:32.331Z,28.23
2019-05-20T17:42:10.730Z,32.10
2019-05-20T17:44:54.649Z,27.70
2019-05-20T17:47:33.514Z,27.90
2019-05-20T17:50:11.065Z,32.77
2019-05-20T17:52:41.811Z,31.00
2019-05-20T17:55:36.303Z,30.90
2019-05-20T17:58:19.178Z,34.53
2019-05-20T18:05:21.639Z,37.47
2019-05-20T18:15:03.279Z,52.17
2019-05-20T18:17:36.070Z,38.67
2019-05-20T18:23:06.914Z,36.60
2019-05-20T18:25:45.397Z,41.13
2019-05-20T18:28:53.642Z,40.70
2019-05-20T18:32:10.770Z,42.03
2019-05-20T18:34:49.553Z,43.37
2019-05-20T18:37:17.537Z,45.73
2019-05-20T18:39:45.394Z,48.70
2019-05-20T18:42:13.031Z,48.03
2019-05-20T18:44:40.704Z,44.63
2019-05-20T18:47:08.537Z,41.83
2019-05-20T18:49:36.157Z,50.67
2019-05-20T18:52:03.696Z,41.77
2019-05-20T18:54:31.599Z,52.77
2019-05-20T18:56:59.271Z,47.27
2019-05-20T18:59:26.899Z,52.20
2019-05-20T19:02:05.507Z,54.73
2019-05-20T19:04:49.560Z,57.23
2019-05-20T19:07:17.185Z,53.43
2019-05-20T19:09:47.981Z,51.70
2019-05-20T19:12:15.789Z,51.53
2019-05-20T19:14:43.845Z,64.17
2019-05-20T19:17:11.469Z,60.97
2019-05-20T19:19:39.235Z,59.37
2019-05-20T19:22:06.949Z,63.83
2019-05-20T19:24:34.581Z,61.73
2019-05-20T19:27:04.075Z,65.50
2019-05-20T19:29:36.881Z,58.70
2019-05-20T19:32:04.892Z,61.30
2019-05-20T19:34:33.511Z,62.53
2019-05-20T19:37:01.161Z,61.03
2019-05-20T19:39:28.795Z,65.27
2019-05-20T19:42:02.925Z,60.03
2019-05-20T19:44:31.640Z,55.00
2019-05-20T19:47:02.867Z,66.87
2019-05-20T19:49:31.255Z,65.27
2019-05-20T19:51:58.942Z,63.97
2019-05-20T19:54:34.896Z,65.03
2019-05-20T19:57:05.295Z,68.17
2019-05-20T19:59:34.194Z,66.63
2019-05-20T20:02:16.369Z,60.23
2019-05-20T20:04:32.397Z,57.53
2019-05-20T20:07:00.112Z,60.10
2019-05-20T20:09:28.341Z,62.37
2019-05-20T20:11:57.226Z,61.07
2019-05-20T20:14:26.600Z,56.47
2019-05-20T20:16:54.342Z,54.73
2019-05-20T20:19:22.112Z,54.07
2019-05-20T20:21:50.472Z,63.53
2019-05-20T20:24:19.004Z,65.03
2019-05-20T20:26:46.600Z,60.40
2019-05-20T20:29:14.284Z,65.90
2019-05-20T20:31:41.982Z,52.23
2019-05-20T20:34:12.853Z,56.07
2019-05-20T20:36:40.796Z,58.70
2019-05-20T20:39:08.464Z,52.13
2019-05-20T20:41:36.085Z,52.80
2019-05-20T20:44:04.579Z,58.93
2019-05-20T20:46:32.413Z,56.93
2019-05-20T20:49:00.053Z,49.27
2019-05-20T20:51:27.628Z,58.60
2019-05-20T20:53:55.217Z,49.93
2019-05-20T20:56:25.504Z,59.93
2019-05-20T20:58:56.201Z,56.90
2019-05-20T21:01:25.052Z,60.27
2019-05-20T21:03:54.121Z,66.17
2019-05-20T21:06:21.630Z,60.93
2019-05-20T21:08:50.222Z,53.17
2019-05-20T21:11:17.991Z,57.50
2019-05-20T21:13:45.627Z,62.20
2019-05-20T21:16:13.798Z,63.40
2019-05-20T21:18:41.755Z,53.50
2019-05-20T21:21:09.392Z,46.97
2019-05-20T21:23:38.125Z,47.83
2019-05-20T21:26:05.724Z,49.03
2019-05-20T21:28:33.348Z,53.63
2019-05-20T21:31:00.882Z,52.53
2019-05-20T21:33:30.048Z,44.20
2019-05-20T21:35:57.851Z,48.67
2019-05-20T21:38:25.500Z,40.17
2019-05-20T21:40:53.014Z,43.53
2019-05-20T21:43:21.359Z,50.83
2019-05-20T21:45:48.931Z,45.93
2019-05-20T21:48:21.880Z,46.83
2019-05-20T21:50:49.873Z,44.90
2019-05-20T21:53:17.477Z,45.97
2019-05-20T21:55:45.463Z,38.90
2019-05-20T21:58:13.043Z,47.73
2019-05-20T22:00:47.326Z,44.10
2019-05-20T22:03:23.889Z,40.63
2019-05-20T22:05:47.552Z,43.97
2019-05-20T22:08:16.753Z,42.83
2019-05-20T22:10:47.065Z,39.73
2019-05-20T22:13:14.693Z,45.63
2019-05-20T22:15:42.248Z,43.47
2019-05-20T22:18:09.830Z,41.50
2019-05-20T22:20:37.397Z,41.90
2019-05-20T22:23:41.283Z,46.40
2019-05-20T22:26:08.869Z,43.77
2019-05-20T22:28:38.128Z,40.07
2019-05-20T22:31:05.772Z,39.53
2019-05-20T22:33:41.375Z,34.57
2019-05-20T22:36:02.721Z,38.13
2019-05-20T22:38:30.463Z,42.30
2019-05-20T22:40:58.039Z,41.00
2019-05-20T22:43:25.587Z,41.47
2019-05-20T22:45:53.454Z,39.07
2019-05-20T22:48:20.976Z,38.53
2019-05-20T22:50:48.968Z,36.87
2019-05-20T22:53:18.653Z,36.93
2019-05-20T22:55:46.279Z,34.77
2019-05-20T22:58:16.005Z,30.90
2019-05-20T23:00:43.541Z,37.30
2019-05-20T23:03:11.082Z,29.10
2019-05-20T23:05:39.803Z,27.03
2019-05-20T23:08:07.423Z,29.13
2019-05-20T23:10:44.568Z,34.27
2019-05-20T23:13:12.972Z,33.57
2019-05-20T23:15:41.088Z,37.17
2019-05-20T23:18:09.298Z,33.80
2019-05-20T23:20:38.817Z,36.60
2019-05-20T23:23:07.099Z,37.70
2019-05-20T23:25:34.657Z,32.93
2019-05-20T23:28:02.343Z,30.17
2019-05-20T23:30:29.913Z,30.00
2019-05-20T23:32:57.485Z,34.80
2019-05-20T23:35:25.092Z,33.70
2019-05-20T23:37:52.635Z,34.40
2019-05-20T23:40:20.240Z,32.60
2019-05-20T23:42:48.055Z,26.73
2019-05-20T23:45:15.674Z,32.80
2019-05-20T23:47:43.244Z,23.20
2019-05-20T23:50:10.791Z,25.90
2019-05-20T23:52:38.413Z,26.10
2019-05-20T23:55:06.146Z,29.63
2019-05-20T23:57:33.732Z,25.23
